createdAt,value
2016-08-13T00:02:50.877Z,22.15
2016-08-13T00:07:48.932Z,22.18
2016-08-13T00:12:46.787Z,22.26
2016-08-13T00:17:44.507Z,22.18
2016-08-13T00:22:42.183Z,22.26
2016-08-13T00:27:39.995Z,22.11
2016-08-13T00:32:37.929Z,22.11
2016-08-13T00:37:35.605Z,22.14
2016-08-13T00:42:33.288Z,22.15
2016-08-13T00:47:31.183Z,22.08
2016-08-13T00:52:28.987Z,22.13
2016-08-13T00:57:26.816Z,22.11
2016-08-13T01:02:24.836Z,22.04
2016-08-13T01:07:22.691Z,22.10
2016-08-13T01:12:20.531Z,22.14
2016-08-13T01:17:18.291Z,22.04
2016-08-13T01:22:16.190Z,22.07
2016-08-13T01:27:14.045Z,22.02
2016-08-13T01:32:11.814Z,22.04
2016-08-13T01:37:09.602Z,22.02
2016-08-13T01:42:07.511Z,22.00
2016-08-13T01:47:05.436Z,21.98
2016-08-13T01:52:03.180Z,21.96
2016-08-13T01:57:01.055Z,22.04
2016-08-13T02:01:58.850Z,21.98
2016-08-13T02:06:56.882Z,21.93
2016-08-13T02:11:54.726Z,21.93
2016-08-13T02:16:52.686Z,21.92
2016-08-13T02:21:50.593Z,21.91
2016-08-13T02:26:48.351Z,21.80
2016-08-13T02:31:46.211Z,21.92
2016-08-13T02:36:44.146Z,21.85
2016-08-13T02:41:42.101Z,21.80
2016-08-13T02:46:39.877Z,21.93
2016-08-13T02:51:37.660Z,21.85
2016-08-13T02:56:35.641Z,21.85
2016-08-13T03:01:33.614Z,21.92
2016-08-13T03:06:31.711Z,21.83
2016-08-13T03:11:29.531Z,21.80
2016-08-13T03:16:27.436Z,21.76
2016-08-13T03:21:25.345Z,21.77
2016-08-13T03:26:23.130Z,21.77
2016-08-13T03:31:20.960Z,21.75
2016-08-13T03:36:18.826Z,21.85
2016-08-13T03:41:16.830Z,21.79
2016-08-13T03:46:14.537Z,21.70
2016-08-13T03:51:12.557Z,21.79
2016-08-13T03:56:10.467Z,21.66
2016-08-13T04:01:08.309Z,21.77
2016-08-13T04:06:06.104Z,21.79
2016-08-13T04:11:03.924Z,21.80
2016-08-13T04:16:01.871Z,21.70
2016-08-13T04:20:59.761Z,21.77
2016-08-13T04:25:57.592Z,21.76
2016-08-13T04:30:55.450Z,21.79
2016-08-13T04:35:53.189Z,21.87
2016-08-13T04:40:51.055Z,21.89
2016-08-13T04:45:49.061Z,21.92
2016-08-13T04:50:46.924Z,21.96
2016-08-13T04:55:44.905Z,21.95
2016-08-13T05:00:42.948Z,21.96
2016-08-13T05:05:40.633Z,22.11
2016-08-13T05:10:38.565Z,22.20
2016-08-13T05:15:36.515Z,22.29
2016-08-13T05:20:34.414Z,22.22
2016-08-13T05:25:32.239Z,22.55
2016-08-13T05:30:30.110Z,23.32
2016-08-13T05:35:27.968Z,23.40
2016-08-13T05:40:25.778Z,23.10
2016-08-13T05:45:23.577Z,22.99
2016-08-13T05:50:21.389Z,22.78
2016-08-13T05:55:19.180Z,22.78
2016-08-13T06:00:16.962Z,22.81
2016-08-13T06:05:15.143Z,22.81
2016-08-13T06:10:12.962Z,22.88
2016-08-13T06:15:10.797Z,22.93
2016-08-13T06:20:08.813Z,23.15
2016-08-13T06:25:06.654Z,23.17
2016-08-13T06:30:04.578Z,23.17
2016-08-13T06:35:02.584Z,23.25
2016-08-13T06:40:00.304Z,23.31
2016-08-13T06:44:58.132Z,23.32
2016-08-13T06:49:56.068Z,23.39
2016-08-13T06:54:53.895Z,23.48
2016-08-13T06:59:51.790Z,23.56
2016-08-13T07:04:49.641Z,23.48
2016-08-13T07:09:47.501Z,23.44
2016-08-13T07:14:45.449Z,23.56
2016-08-13T07:19:43.244Z,23.47
2016-08-13T07:24:41.111Z,23.58
2016-08-13T07:29:38.811Z,23.56
2016-08-13T07:34:36.654Z,23.69
2016-08-13T07:39:34.529Z,23.71
2016-08-13T07:44:32.299Z,23.65
2016-08-13T07:49:30.299Z,23.74
2016-08-13T07:54:28.342Z,23.88
2016-08-13T07:59:26.179Z,23.95
2016-08-13T08:04:24.134Z,24.08
2016-08-13T08:09:21.865Z,24.24
2016-08-13T08:14:19.933Z,24.80
2016-08-13T08:19:17.713Z,24.58
2016-08-13T08:24:15.664Z,24.78
2016-08-13T08:29:13.645Z,25.06
2016-08-13T08:34:11.555Z,24.84
2016-08-13T08:39:09.392Z,24.57
2016-08-13T08:44:07.083Z,24.47
2016-08-13T08:49:04.801Z,24.38
2016-08-13T08:54:02.557Z,24.28
2016-08-13T08:59:00.447Z,24.14
2016-08-13T09:03:57.967Z,24.18
2016-08-13T09:08:55.789Z,24.14
2016-08-13T09:13:53.541Z,23.99
2016-08-13T09:18:51.261Z,23.86
2016-08-13T09:23:48.932Z,23.86
2016-08-13T09:28:46.673Z,23.84
2016-08-13T09:33:44.654Z,23.93
2016-08-13T09:38:42.429Z,23.98
2016-08-13T09:43:40.311Z,24.17
2016-08-13T09:48:38.128Z,24.24
2016-08-13T09:53:35.976Z,23.96
2016-08-13T09:58:33.793Z,23.81
2016-08-13T10:03:31.608Z,23.76
2016-08-13T10:08:29.395Z,23.84
2016-08-13T10:13:27.167Z,23.78
2016-08-13T10:18:24.743Z,23.74
2016-08-13T10:23:22.453Z,23.87
2016-08-13T10:28:20.386Z,23.86
2016-08-13T10:33:18.118Z,23.92
2016-08-13T10:38:15.794Z,23.71
2016-08-13T10:43:13.493Z,23.78
2016-08-13T10:48:11.369Z,23.88
2016-08-13T10:53:09.199Z,23.87
2016-08-13T10:58:07.037Z,23.95
2016-08-13T11:03:04.786Z,23.98
2016-08-13T11:08:02.425Z,23.95
2016-08-13T11:13:00.210Z,23.95
2016-08-13T11:17:57.890Z,24.05
2016-08-13T11:22:55.537Z,23.92
2016-08-13T11:27:53.157Z,23.98
2016-08-13T11:32:50.973Z,23.95
2016-08-13T11:37:48.824Z,23.98
2016-08-13T11:42:46.557Z,23.87
2016-08-13T11:47:44.172Z,23.87
2016-08-13T11:52:41.956Z,23.95
2016-08-13T11:57:39.622Z,23.87
2016-08-13T12:02:37.355Z,23.88
2016-08-13T12:07:35.290Z,23.95
2016-08-13T12:12:32.960Z,23.93
2016-08-13T12:17:31.922Z,23.84
2016-08-13T12:22:29.403Z,23.77
2016-08-13T12:27:27.231Z,23.87
2016-08-13T12:32:24.878Z,23.88
2016-08-13T12:37:22.713Z,23.86
2016-08-13T12:42:20.450Z,23.91
2016-08-13T12:47:18.218Z,23.93
2016-08-13T12:52:15.940Z,23.73
2016-08-13T12:57:13.620Z,23.66
2016-08-13T13:02:11.253Z,23.71
2016-08-13T13:07:09.002Z,23.80
2016-08-13T13:12:06.694Z,23.84
2016-08-13T13:17:04.604Z,23.78
2016-08-13T13:22:02.277Z,23.87
2016-08-13T13:26:59.919Z,23.81
2016-08-13T13:31:57.686Z,23.81
2016-08-13T13:36:55.337Z,23.80
2016-08-13T13:41:52.930Z,23.84
2016-08-13T13:46:50.781Z,23.86
2016-08-13T13:51:48.672Z,23.95
2016-08-13T13:56:46.419Z,23.93
2016-08-13T14:01:44.265Z,23.98
2016-08-13T14:06:42.058Z,23.98
2016-08-13T14:11:39.761Z,23.91
2016-08-13T14:16:37.732Z,23.88
2016-08-13T14:21:35.386Z,23.95
2016-08-13T14:26:33.085Z,23.91
2016-08-13T14:31:30.870Z,23.88
2016-08-13T14:36:28.474Z,24.11
2016-08-13T14:41:26.331Z,23.96
2016-08-13T14:46:24.105Z,23.86
2016-08-13T14:51:21.826Z,23.87
2016-08-13T14:56:19.596Z,23.86
2016-08-13T15:01:18.243Z,23.87
2016-08-13T15:06:15.999Z,23.78
2016-08-13T15:11:13.680Z,23.88
2016-08-13T15:16:11.409Z,23.81
2016-08-13T15:21:09.126Z,23.80
2016-08-13T15:26:07.046Z,23.76
2016-08-13T15:31:04.798Z,23.74
2016-08-13T15:36:02.629Z,23.77
2016-08-13T15:41:00.386Z,23.93
2016-08-13T15:45:58.342Z,23.87
2016-08-13T15:50:55.913Z,23.93
2016-08-13T15:55:53.867Z,23.81
2016-08-13T16:00:51.568Z,23.74
2016-08-13T16:05:49.320Z,23.71
2016-08-13T16:10:47.120Z,23.66
2016-08-13T16:15:44.859Z,23.69
2016-08-13T16:20:42.543Z,23.63
2016-08-13T16:25:40.404Z,23.54
2016-08-13T16:30:38.095Z,23.66
2016-08-13T16:35:35.885Z,23.54
2016-08-13T16:40:33.813Z,23.48
2016-08-13T16:45:31.689Z,23.58
2016-08-13T16:50:29.262Z,23.47
2016-08-13T16:55:27.004Z,23.58
2016-08-13T17:00:24.822Z,23.58
2016-08-13T17:05:22.634Z,23.48
2016-08-13T17:10:20.488Z,23.43
2016-08-13T17:15:18.161Z,23.51
2016-08-13T17:20:15.886Z,23.43
2016-08-13T17:25:13.840Z,23.44
2016-08-13T17:30:11.329Z,23.44
2016-08-13T17:35:09.188Z,23.41
2016-08-13T17:40:06.980Z,23.40
2016-08-13T17:45:04.507Z,23.39
2016-08-13T17:50:02.036Z,23.37
2016-08-13T17:54:59.762Z,23.25
2016-08-13T17:59:57.505Z,23.39
2016-08-13T18:04:55.185Z,23.28
2016-08-13T18:09:52.981Z,23.34
2016-08-13T18:14:50.879Z,23.36
2016-08-13T18:19:48.683Z,23.25
2016-08-13T18:24:46.531Z,23.24
2016-08-13T18:29:44.218Z,23.21
2016-08-13T18:34:41.825Z,23.20
2016-08-13T18:39:39.497Z,23.17
2016-08-13T18:44:37.141Z,23.20
2016-08-13T18:49:34.975Z,23.15
2016-08-13T18:54:32.630Z,23.08
2016-08-13T18:59:30.241Z,23.09
2016-08-13T19:04:28.014Z,23.08
2016-08-13T19:09:25.760Z,23.03
2016-08-13T19:14:23.506Z,23.02
2016-08-13T19:19:21.331Z,23.09
2016-08-13T19:24:19.107Z,23.05
2016-08-13T19:29:16.776Z,23.02
2016-08-13T19:34:14.567Z,22.99
2016-08-13T19:39:12.318Z,23.03
2016-08-13T19:44:10.015Z,23.06
2016-08-13T19:49:07.797Z,23.02
2016-08-13T19:54:05.532Z,23.02
2016-08-13T19:59:03.478Z,22.98
2016-08-13T20:04:01.316Z,23.03
2016-08-13T20:08:58.986Z,23.00
2016-08-13T20:13:57.057Z,22.96
2016-08-13T20:18:54.894Z,22.88
2016-08-13T20:23:52.788Z,22.87
2016-08-13T20:28:50.532Z,22.91
2016-08-13T20:33:48.512Z,22.94
2016-08-13T20:38:46.099Z,22.88
2016-08-13T20:43:43.810Z,22.91
2016-08-13T20:48:41.511Z,22.90
2016-08-13T20:53:39.247Z,22.90
2016-08-13T20:58:37.045Z,22.91
2016-08-13T21:03:34.814Z,22.85
2016-08-13T21:08:32.603Z,22.81
2016-08-13T21:13:30.407Z,22.81
2016-08-13T21:18:28.240Z,22.83
2016-08-13T21:23:26.070Z,22.72
2016-08-13T21:28:24.042Z,22.73
2016-08-13T21:33:21.774Z,22.72
2016-08-13T21:38:19.649Z,22.60
2016-08-13T21:43:17.342Z,22.72
2016-08-13T21:48:15.258Z,22.66
2016-08-13T21:53:13.018Z,22.68
2016-08-13T21:58:10.677Z,22.65
2016-08-13T22:03:08.485Z,22.69
2016-08-13T22:08:06.054Z,22.66
2016-08-13T22:13:03.797Z,22.72
2016-08-13T22:18:01.649Z,22.73
2016-08-13T22:23:00.529Z,22.69
2016-08-13T22:27:57.943Z,22.69
2016-08-13T22:32:55.767Z,22.65
2016-08-13T22:37:53.609Z,22.66
2016-08-13T22:42:51.351Z,22.60
2016-08-13T22:47:49.184Z,22.69
2016-08-13T22:52:47.020Z,22.59
2016-08-13T22:57:44.784Z,22.63
2016-08-13T23:02:42.483Z,22.73
2016-08-13T23:07:40.201Z,22.60
2016-08-13T23:12:37.896Z,22.50
2016-08-13T23:17:35.668Z,22.53
2016-08-13T23:22:33.582Z,22.47
2016-08-13T23:27:31.158Z,22.54
2016-08-13T23:32:28.848Z,22.53
2016-08-13T23:37:26.728Z,22.55
2016-08-13T23:42:24.410Z,22.53
2016-08-13T23:47:22.156Z,22.57
2016-08-13T23:52:19.982Z,22.55
2016-08-13T23:57:17.756Z,22.48
